sensor_id;sensor_type;location;lat;lon;timestamp;P1;durP1;ratioP1;P2;durP2;ratioP2
16593;SDS011;8410;52.532;13.336;2023-11-18T00:00:50;8.00;;;6.40;;
16593;SDS011;8410;52.532;13.336;2023-11-18T00:03:18;8.87;;;5.90;;
16593;SDS011;8410;52.532;13.336;2023-11-18T00:05:47;6.60;;;5.87;;
16593;SDS011;8410;52.532;13.336;2023-11-18T00:08:14;8.13;;;7.33;;
16593;SDS011;8410;52.532;13.336;2023-11-18T00:10:42;7.00;;;6.30;;
16593;SDS011;8410;52.532;13.336;2023-11-18T00:13:10;7.83;;;6.37;;
16593;SDS011;8410;52.532;13.336;2023-11-18T00:15:37;8.00;;;6.33;;
16593;SDS011;8410;52.532;13.336;2023-11-18T00:18:05;6.77;;;5.90;;
16593;SDS011;8410;52.532;13.336;2023-11-18T00:20:33;7.63;;;6.83;;
16593;SDS011;8410;52.532;13.336;2023-11-18T00:23:03;6.50;;;5.90;;
16593;SDS011;8410;52.532;13.336;2023-11-18T00:25:38;21.63;;;16.73;;
16593;SDS011;8410;52.532;13.336;2023-11-18T00:28:11;7.23;;;6.60;;
16593;SDS011;8410;52.532;13.336;2023-11-18T00:30:39;6.70;;;6.10;;
16593;SDS011;8410;52.532;13.336;2023-11-18T00:33:07;6.37;;;5.80;;
16593;SDS011;8410;52.532;13.336;2023-11-18T00:35:35;6.90;;;6.30;;
16593;SDS011;8410;52.532;13.336;2023-11-18T00:38:04;7.60;;;6.90;;
16593;SDS011;8410;52.532;13.336;2023-11-18T00:40:31;8.10;;;5.53;;
16593;SDS011;8410;52.532;13.336;2023-11-18T00:42:59;7.77;;;7.03;;
16593;SDS011;8410;52.532;13.336;2023-11-18T00:45:26;7.10;;;6.40;;
16593;SDS011;8410;52.532;13.336;2023-11-18T00:47:55;6.73;;;6.13;;
16593;SDS011;8410;52.532;13.336;2023-11-18T00:50:22;8.43;;;6.90;;
16593;SDS011;8410;52.532;13.336;2023-11-18T00:52:50;8.47;;;7.67;;
16593;SDS011;8410;52.532;13.336;2023-11-18T00:55:19;8.27;;;7.47;;
16593;SDS011;8410;52.532;13.336;2023-11-18T00:57:47;8.03;;;7.23;;
16593;SDS011;8410;52.532;13.336;2023-11-18T01:00:14;7.97;;;7.23;;
16593;SDS011;8410;52.532;13.336;2023-11-18T01:02:45;7.53;;;6.80;;
16593;SDS011;8410;52.532;13.336;2023-11-18T01:05:13;7.40;;;6.67;;
16593;SDS011;8410;52.532;13.336;2023-11-18T01:07:41;11.20;;;8.67;;
16593;SDS011;8410;52.532;13.336;2023-11-18T01:10:09;7.37;;;6.67;;
16593;SDS011;8410;52.532;13.336;2023-11-18T01:12:39;8.00;;;7.30;;
16593;SDS011;8410;52.532;13.336;2023-11-18T01:15:07;7.77;;;7.07;;
16593;SDS011;8410;52.532;13.336;2023-11-18T01:17:36;7.77;;;6.60;;
16593;SDS011;8410;52.532;13.336;2023-11-18T01:20:04;7.17;;;6.47;;
16593;SDS011;8410;52.532;13.336;2023-11-18T01:22:36;8.63;;;7.77;;
16593;SDS011;8410;52.532;13.336;2023-11-18T01:25:06;6.80;;;6.13;;
16593;SDS011;8410;52.532;13.336;2023-11-18T01:27:34;6.80;;;6.20;;
16593;SDS011;8410;52.532;13.336;2023-11-18T01:30:04;6.20;;;5.70;;
16593;SDS011;8410;52.532;13.336;2023-11-18T01:32:33;7.27;;;6.57;;
16593;SDS011;8410;52.532;13.336;2023-11-18T01:35:01;6.63;;;6.10;;
16593;SDS011;8410;52.532;13.336;2023-11-18T01:37:28;6.17;;;5.57;;
16593;SDS011;8410;52.532;13.336;2023-11-18T01:39:56;6.77;;;6.00;;
16593;SDS011;8410;52.532;13.336;2023-11-18T01:42:23;7.37;;;6.03;;
16593;SDS011;8410;52.532;13.336;2023-11-18T01:44:51;7.40;;;6.20;;
16593;SDS011;8410;52.532;13.336;2023-11-18T01:47:20;7.10;;;6.50;;
16593;SDS011;8410;52.532;13.336;2023-11-18T01:49:47;8.10;;;6.27;;
16593;SDS011;8410;52.532;13.336;2023-11-18T01:52:15;6.70;;;6.10;;
16593;SDS011;8410;52.532;13.336;2023-11-18T01:54:43;6.90;;;6.30;;
16593;SDS011;8410;52.532;13.336;2023-11-18T01:57:11;6.67;;;6.07;;
16593;SDS011;8410;52.532;13.336;2023-11-18T01:59:40;6.77;;;6.07;;
16593;SDS011;8410;52.532;13.336;2023-11-18T02:02:08;7.03;;;6.33;;
16593;SDS011;8410;52.532;13.336;2023-11-18T02:04:36;9.20;;;6.33;;
16593;SDS011;8410;52.532;13.336;2023-11-18T02:07:04;7.20;;;6.50;;
16593;SDS011;8410;52.532;13.336;2023-11-18T02:09:35;6.40;;;5.80;;
16593;SDS011;8410;52.532;13.336;2023-11-18T02:12:10;6.70;;;6.00;;
16593;SDS011;8410;52.532;13.336;2023-11-18T02:14:46;7.03;;;6.13;;
16593;SDS011;8410;52.532;13.336;2023-11-18T02:17:18;6.63;;;5.60;;
16593;SDS011;8410;52.532;13.336;2023-11-18T02:19:51;7.67;;;6.80;;
16593;SDS011;8410;52.532;13.336;2023-11-18T02:22:20;5.83;;;5.33;;
16593;SDS011;8410;52.532;13.336;2023-11-18T02:24:48;6.60;;;5.90;;
16593;SDS011;8410;52.532;13.336;2023-11-18T02:27:17;8.13;;;6.43;;
16593;SDS011;8410;52.532;13.336;2023-11-18T02:29:48;7.50;;;6.27;;
16593;SDS011;8410;52.532;13.336;2023-11-18T02:32:18;8.47;;;6.67;;
16593;SDS011;8410;52.532;13.336;2023-11-18T02:35:05;7.33;;;6.70;;
16593;SDS011;8410;52.532;13.336;2023-11-18T02:37:37;7.53;;;6.47;;
16593;SDS011;8410;52.532;13.336;2023-11-18T02:40:08;7.87;;;7.10;;
16593;SDS011;8410;52.532;13.336;2023-11-18T02:42:42;9.17;;;6.43;;
16593;SDS011;8410;52.532;13.336;2023-11-18T02:45:13;7.43;;;6.73;;
16593;SDS011;8410;52.532;13.336;2023-11-18T02:47:43;7.40;;;6.70;;
16593;SDS011;8410;52.532;13.336;2023-11-18T02:50:11;8.77;;;6.90;;
16593;SDS011;8410;52.532;13.336;2023-11-18T02:52:40;9.17;;;7.13;;
16593;SDS011;8410;52.532;13.336;2023-11-18T02:55:07;7.90;;;7.13;;
16593;SDS011;8410;52.532;13.336;2023-11-18T02:57:35;8.03;;;7.03;;
16593;SDS011;8410;52.532;13.336;2023-11-18T03:00:05;8.83;;;6.37;;
16593;SDS011;8410;52.532;13.336;2023-11-18T03:02:38;7.70;;;7.00;;
16593;SDS011;8410;52.532;13.336;2023-11-18T03:05:06;7.50;;;6.80;;
16593;SDS011;8410;52.532;13.336;2023-11-18T03:07:37;6.90;;;6.27;;
16593;SDS011;8410;52.532;13.336;2023-11-18T03:10:05;7.40;;;6.70;;
16593;SDS011;8410;52.532;13.336;2023-11-18T03:12:37;7.50;;;6.80;;
16593;SDS011;8410;52.532;13.336;2023-11-18T03:15:06;7.40;;;6.70;;
16593;SDS011;8410;52.532;13.336;2023-11-18T03:17:35;7.23;;;6.53;;
16593;SDS011;8410;52.532;13.336;2023-11-18T03:20:04;7.57;;;6.73;;
16593;SDS011;8410;52.532;13.336;2023-11-18T03:22:34;6.57;;;5.97;;
16593;SDS011;8410;52.532;13.336;2023-11-18T03:25:02;7.23;;;6.53;;
16593;SDS011;8410;52.532;13.336;2023-11-18T03:27:31;6.87;;;6.07;;
16593;SDS011;8410;52.532;13.336;2023-11-18T03:29:58;7.70;;;7.00;;
16593;SDS011;8410;52.532;13.336;2023-11-18T03:32:27;7.67;;;6.83;;
16593;SDS011;8410;52.532;13.336;2023-11-18T03:34:55;8.43;;;6.17;;
16593;SDS011;8410;52.532;13.336;2023-11-18T03:37:25;8.23;;;6.07;;
16593;SDS011;8410;52.532;13.336;2023-11-18T03:39:52;6.87;;;6.27;;
16593;SDS011;8410;52.532;13.336;2023-11-18T03:42:20;7.77;;;6.97;;
16593;SDS011;8410;52.532;13.336;2023-11-18T03:44:48;7.37;;;6.07;;
16593;SDS011;8410;52.532;13.336;2023-11-18T03:47:15;6.83;;;6.23;;
16593;SDS011;8410;52.532;13.336;2023-11-18T03:49:44;6.60;;;6.00;;
16593;SDS011;8410;52.532;13.336;2023-11-18T03:52:12;6.93;;;5.53;;
16593;SDS011;8410;52.532;13.336;2023-11-18T03:54:39;6.53;;;5.93;;
16593;SDS011;8410;52.532;13.336;2023-11-18T03:57:08;6.80;;;6.10;;
16593;SDS011;8410;52.532;13.336;2023-11-18T03:59:35;6.90;;;6.27;;
16593;SDS011;8410;52.532;13.336;2023-11-18T04:02:03;7.30;;;6.53;;
16593;SDS011;8410;52.532;13.336;2023-11-18T04:04:30;7.13;;;6.50;;
16593;SDS011;8410;52.532;13.336;2023-11-18T04:06:59;7.10;;;6.40;;
16593;SDS011;8410;52.532;13.336;2023-11-18T04:09:27;6.60;;;5.93;;
16593;SDS011;8410;52.532;13.336;2023-11-18T04:11:55;7.47;;;6.70;;
16593;SDS011;8410;52.532;13.336;2023-11-18T04:14:22;7.70;;;6.93;;
16593;SDS011;8410;52.532;13.336;2023-11-18T04:16:51;8.90;;;6.97;;
16593;SDS011;8410;52.532;13.336;2023-11-18T04:19:19;9.67;;;8.07;;
16593;SDS011;8410;52.532;13.336;2023-11-18T04:21:47;8.47;;;7.37;;
16593;SDS011;8410;52.532;13.336;2023-11-18T04:24:16;8.67;;;7.87;;
16593;SDS011;8410;52.532;13.336;2023-11-18T04:26:44;8.83;;;7.93;;
16593;SDS011;8410;52.532;13.336;2023-11-18T04:29:12;9.03;;;8.17;;
16593;SDS011;8410;52.532;13.336;2023-11-18T04:31:39;9.57;;;8.20;;
16593;SDS011;8410;52.532;13.336;2023-11-18T04:34:07;9.60;;;7.53;;
16593;SDS011;8410;52.532;13.336;2023-11-18T04:36:34;9.67;;;8.30;;
16593;SDS011;8410;52.532;13.336;2023-11-18T04:39:02;10.83;;;9.07;;
16593;SDS011;8410;52.532;13.336;2023-11-18T04:41:31;10.43;;;9.33;;
16593;SDS011;8410;52.532;13.336;2023-11-18T04:43:58;9.53;;;8.53;;
16593;SDS011;8410;52.532;13.336;2023-11-18T04:46:26;10.67;;;8.43;;
16593;SDS011;8410;52.532;13.336;2023-11-18T04:48:53;9.70;;;8.70;;
16593;SDS011;8410;52.532;13.336;2023-11-18T04:51:21;10.03;;;7.67;;
16593;SDS011;8410;52.532;13.336;2023-11-18T04:53:49;9.27;;;8.33;;
16593;SDS011;8410;52.532;13.336;2023-11-18T04:56:16;9.00;;;8.10;;
16593;SDS011;8410;52.532;13.336;2023-11-18T04:58:46;9.13;;;8.23;;
16593;SDS011;8410;52.532;13.336;2023-11-18T05:01:14;10.33;;;8.50;;
16593;SDS011;8410;52.532;13.336;2023-11-18T05:03:42;9.93;;;8.97;;
16593;SDS011;8410;52.532;13.336;2023-11-18T05:06:10;10.23;;;8.27;;
16593;SDS011;8410;52.532;13.336;2023-11-18T05:08:37;10.40;;;8.60;;
16593;SDS011;8410;52.532;13.336;2023-11-18T05:11:05;72.80;;;58.37;;
16593;SDS011;8410;52.532;13.336;2023-11-18T05:13:33;62.17;;;48.93;;
16593;SDS011;8410;52.532;13.336;2023-11-18T05:16:02;55.33;;;47.07;;
16593;SDS011;8410;52.532;13.336;2023-11-18T05:18:30;53.60;;;47.50;;
16593;SDS011;8410;52.532;13.336;2023-11-18T05:21:02;34.87;;;30.03;;
16593;SDS011;8410;52.532;13.336;2023-11-18T05:23:31;25.53;;;22.87;;
16593;SDS011;8410;52.532;13.336;2023-11-18T05:25:58;20.37;;;17.40;;
16593;SDS011;8410;52.532;13.336;2023-11-18T05:28:26;20.90;;;18.80;;
16593;SDS011;8410;52.532;13.336;2023-11-18T05:30:53;18.30;;;16.30;;
16593;SDS011;8410;52.532;13.336;2023-11-18T05:33:25;15.47;;;13.87;;
16593;SDS011;8410;52.532;13.336;2023-11-18T05:35:54;7.17;;;6.50;;
16593;SDS011;8410;52.532;13.336;2023-11-18T05:38:21;8.20;;;7.40;;
16593;SDS011;8410;52.532;13.336;2023-11-18T05:40:50;8.53;;;7.13;;
16593;SDS011;8410;52.532;13.336;2023-11-18T05:43:23;8.87;;;8.03;;
16593;SDS011;8410;52.532;13.336;2023-11-18T05:45:52;9.10;;;8.20;;
16593;SDS011;8410;52.532;13.336;2023-11-18T05:48:42;8.90;;;8.00;;
16593;SDS011;8410;52.532;13.336;2023-11-18T05:51:10;9.67;;;8.37;;
16593;SDS011;8410;52.532;13.336;2023-11-18T05:53:41;10.80;;;8.93;;
16593;SDS011;8410;52.532;13.336;2023-11-18T05:56:11;10.93;;;8.27;;
16593;SDS011;8410;52.532;13.336;2023-11-18T05:58:39;9.63;;;8.63;;
16593;SDS011;8410;52.532;13.336;2023-11-18T06:01:06;9.60;;;8.23;;
16593;SDS011;8410;52.532;13.336;2023-11-18T06:03:35;9.27;;;8.43;;
16593;SDS011;8410;52.532;13.336;2023-11-18T06:06:07;9.03;;;8.13;;
16593;SDS011;8410;52.532;13.336;2023-11-18T06:08:36;9.30;;;8.40;;
16593;SDS011;8410;52.532;13.336;2023-11-18T06:11:07;10.30;;;9.00;;
16593;SDS011;8410;52.532;13.336;2023-11-18T06:13:40;9.43;;;8.53;;
16593;SDS011;8410;52.532;13.336;2023-11-18T06:16:13;10.97;;;8.53;;
16593;SDS011;8410;52.532;13.336;2023-11-18T06:18:42;9.40;;;8.40;;
16593;SDS011;8410;52.532;13.336;2023-11-18T06:21:13;14.47;;;12.13;;
16593;SDS011;8410;52.532;13.336;2023-11-18T06:23:41;13.80;;;12.07;;
16593;SDS011;8410;52.532;13.336;2023-11-18T06:26:09;12.37;;;11.00;;
16593;SDS011;8410;52.532;13.336;2023-11-18T06:28:38;11.77;;;10.40;;
16593;SDS011;8410;52.532;13.336;2023-11-18T06:31:06;11.90;;;8.70;;
16593;SDS011;8410;52.532;13.336;2023-11-18T06:33:38;9.63;;;8.63;;
16593;SDS011;8410;52.532;13.336;2023-11-18T06:36:09;9.40;;;8.43;;
16593;SDS011;8410;52.532;13.336;2023-11-18T06:38:45;9.80;;;8.90;;
16593;SDS011;8410;52.532;13.336;2023-11-18T06:41:13;9.97;;;8.40;;
16593;SDS011;8410;52.532;13.336;2023-11-18T06:43:43;9.73;;;8.73;;
16593;SDS011;8410;52.532;13.336;2023-11-18T06:46:27;10.83;;;8.63;;
16593;SDS011;8410;52.532;13.336;2023-11-18T06:48:58;10.13;;;9.13;;
16593;SDS011;8410;52.532;13.336;2023-11-18T06:51:30;10.23;;;9.13;;
16593;SDS011;8410;52.532;13.336;2023-11-18T06:54:03;10.47;;;9.37;;
16593;SDS011;8410;52.532;13.336;2023-11-18T06:56:35;10.60;;;9.53;;
16593;SDS011;8410;52.532;13.336;2023-11-18T06:59:04;11.20;;;9.73;;
16593;SDS011;8410;52.532;13.336;2023-11-18T07:01:33;10.73;;;9.63;;
16593;SDS011;8410;52.532;13.336;2023-11-18T07:04:02;12.43;;;10.77;;
16593;SDS011;8410;52.532;13.336;2023-11-18T07:06:29;11.10;;;9.87;;
16593;SDS011;8410;52.532;13.336;2023-11-18T07:08:57;12.40;;;10.20;;
16593;SDS011;8410;52.532;13.336;2023-11-18T07:11:28;11.57;;;9.83;;
16593;SDS011;8410;52.532;13.336;2023-11-18T07:13:58;10.70;;;9.60;;
16593;SDS011;8410;52.532;13.336;2023-11-18T07:16:26;11.13;;;9.43;;
16593;SDS011;8410;52.532;13.336;2023-11-18T07:18:54;12.90;;;10.27;;
16593;SDS011;8410;52.532;13.336;2023-11-18T07:21:22;12.87;;;10.53;;
16593;SDS011;8410;52.532;13.336;2023-11-18T07:23:50;12.30;;;9.93;;
16593;SDS011;8410;52.532;13.336;2023-11-18T07:26:17;15.20;;;11.07;;
16593;SDS011;8410;52.532;13.336;2023-11-18T07:28:46;10.67;;;9.50;;
16593;SDS011;8410;52.532;13.336;2023-11-18T07:31:14;14.07;;;9.90;;
16593;SDS011;8410;52.532;13.336;2023-11-18T07:33:44;12.43;;;11.13;;
16593;SDS011;8410;52.532;13.336;2023-11-18T07:36:15;15.33;;;11.03;;
16593;SDS011;8410;52.532;13.336;2023-11-18T07:38:42;11.87;;;10.67;;
16593;SDS011;8410;52.532;13.336;2023-11-18T07:41:10;12.43;;;11.13;;
16593;SDS011;8410;52.532;13.336;2023-11-18T07:43:51;11.40;;;10.17;;
16593;SDS011;8410;52.532;13.336;2023-11-18T07:46:21;12.50;;;9.60;;
16593;SDS011;8410;52.532;13.336;2023-11-18T07:48:49;12.80;;;10.17;;
16593;SDS011;8410;52.532;13.336;2023-11-18T07:51:18;11.50;;;9.03;;
16593;SDS011;8410;52.532;13.336;2023-11-18T07:53:47;15.77;;;10.67;;
16593;SDS011;8410;52.532;13.336;2023-11-18T07:56:15;14.60;;;11.70;;
16593;SDS011;8410;52.532;13.336;2023-11-18T07:58:43;12.70;;;11.43;;
16593;SDS011;8410;52.532;13.336;2023-11-18T08:01:14;13.97;;;10.73;;
16593;SDS011;8410;52.532;13.336;2023-11-18T08:03:43;10.40;;;9.30;;
16593;SDS011;8410;52.532;13.336;2023-11-18T08:06:11;10.97;;;9.53;;
16593;SDS011;8410;52.532;13.336;2023-11-18T08:08:39;10.30;;;9.20;;
16593;SDS011;8410;52.532;13.336;2023-11-18T08:11:08;10.47;;;8.77;;
16593;SDS011;8410;52.532;13.336;2023-11-18T08:13:37;13.20;;;8.97;;
16593;SDS011;8410;52.532;13.336;2023-11-18T08:16:06;10.97;;;9.67;;
16593;SDS011;8410;52.532;13.336;2023-11-18T08:18:36;11.07;;;9.97;;
16593;SDS011;8410;52.532;13.336;2023-11-18T08:21:05;10.93;;;9.83;;
16593;SDS011;8410;52.532;13.336;2023-11-18T08:23:33;9.83;;;8.83;;
16593;SDS011;8410;52.532;13.336;2023-11-18T08:26:02;11.70;;;9.23;;
16593;SDS011;8410;52.532;13.336;2023-11-18T08:28:31;11.73;;;9.50;;
16593;SDS011;8410;52.532;13.336;2023-11-18T08:30:59;10.60;;;9.10;;
16593;SDS011;8410;52.532;13.336;2023-11-18T08:33:27;10.43;;;9.37;;
16593;SDS011;8410;52.532;13.336;2023-11-18T08:35:56;10.43;;;9.33;;
16593;SDS011;8410;52.532;13.336;2023-11-18T08:38:24;10.53;;;9.47;;
16593;SDS011;8410;52.532;13.336;2023-11-18T08:40:51;10.97;;;9.10;;
16593;SDS011;8410;52.532;13.336;2023-11-18T08:43:19;10.57;;;9.47;;
16593;SDS011;8410;52.532;13.336;2023-11-18T08:45:47;11.07;;;8.30;;
16593;SDS011;8410;52.532;13.336;2023-11-18T08:48:16;10.10;;;9.10;;
16593;SDS011;8410;52.532;13.336;2023-11-18T08:50:45;9.57;;;8.67;;
16593;SDS011;8410;52.532;13.336;2023-11-18T08:53:14;9.97;;;8.97;;
16593;SDS011;8410;52.532;13.336;2023-11-18T08:55:44;10.87;;;9.73;;
16593;SDS011;8410;52.532;13.336;2023-11-18T08:58:18;10.13;;;9.07;;
16593;SDS011;8410;52.532;13.336;2023-11-18T09:00:48;9.40;;;7.53;;
16593;SDS011;8410;52.532;13.336;2023-11-18T09:03:21;10.10;;;8.43;;
16593;SDS011;8410;52.532;13.336;2023-11-18T09:05:55;10.53;;;9.53;;
16593;SDS011;8410;52.532;13.336;2023-11-18T09:08:25;11.77;;;7.93;;
16593;SDS011;8410;52.532;13.336;2023-11-18T09:10:55;11.10;;;8.37;;
16593;SDS011;8410;52.532;13.336;2023-11-18T09:13:24;9.67;;;8.60;;
16593;SDS011;8410;52.532;13.336;2023-11-18T09:15:55;9.27;;;7.57;;
16593;SDS011;8410;52.532;13.336;2023-11-18T09:18:23;9.87;;;8.67;;
16593;SDS011;8410;52.532;13.336;2023-11-18T09:20:52;9.30;;;8.37;;
16593;SDS011;8410;52.532;13.336;2023-11-18T09:23:21;9.73;;;8.63;;
16593;SDS011;8410;52.532;13.336;2023-11-18T09:25:53;10.40;;;9.40;;
16593;SDS011;8410;52.532;13.336;2023-11-18T09:28:21;9.77;;;8.30;;
16593;SDS011;8410;52.532;13.336;2023-11-18T09:30:51;10.23;;;8.27;;
16593;SDS011;8410;52.532;13.336;2023-11-18T09:33:20;9.97;;;8.17;;
16593;SDS011;8410;52.532;13.336;2023-11-18T09:35:58;9.80;;;8.70;;
16593;SDS011;8410;52.532;13.336;2023-11-18T09:38:27;9.57;;;8.53;;
16593;SDS011;8410;52.532;13.336;2023-11-18T09:40:57;9.40;;;8.37;;
16593;SDS011;8410;52.532;13.336;2023-11-18T09:43:29;10.90;;;8.23;;
16593;SDS011;8410;52.532;13.336;2023-11-18T09:46:01;10.27;;;8.67;;
16593;SDS011;8410;52.532;13.336;2023-11-18T09:48:40;10.00;;;7.67;;
16593;SDS011;8410;52.532;13.336;2023-11-18T09:51:12;9.47;;;7.93;;
16593;SDS011;8410;52.532;13.336;2023-11-18T09:53:43;10.07;;;7.73;;
16593;SDS011;8410;52.532;13.336;2023-11-18T09:56:17;8.20;;;7.50;;
16593;SDS011;8410;52.532;13.336;2023-11-18T09:58:56;8.80;;;7.57;;
16593;SDS011;8410;52.532;13.336;2023-11-18T10:01:30;8.45;;;7.15;;
16593;SDS011;8410;52.532;13.336;2023-11-18T10:03:59;9.13;;;7.03;;
16593;SDS011;8410;52.532;13.336;2023-11-18T10:06:33;8.63;;;7.73;;
16593;SDS011;8410;52.532;13.336;2023-11-18T10:09:02;8.03;;;7.00;;
16593;SDS011;8410;52.532;13.336;2023-11-18T10:11:43;7.23;;;6.47;;
16593;SDS011;8410;52.532;13.336;2023-11-18T10:14:13;7.17;;;6.47;;
16593;SDS011;8410;52.532;13.336;2023-11-18T10:16:42;7.90;;;7.10;;
16593;SDS011;8410;52.532;13.336;2023-11-18T10:19:13;7.23;;;6.53;;
16593;SDS011;8410;52.532;13.336;2023-11-18T10:21:43;7.03;;;6.33;;
16593;SDS011;8410;52.532;13.336;2023-11-18T10:24:15;6.73;;;6.03;;
16593;SDS011;8410;52.532;13.336;2023-11-18T10:26:53;7.00;;;6.10;;
16593;SDS011;8410;52.532;13.336;2023-11-18T10:29:23;7.93;;;6.20;;
16593;SDS011;8410;52.532;13.336;2023-11-18T10:32:03;7.83;;;6.17;;
16593;SDS011;8410;52.532;13.336;2023-11-18T10:34:34;5.73;;;5.07;;
16593;SDS011;8410;52.532;13.336;2023-11-18T10:37:02;6.30;;;5.70;;
16593;SDS011;8410;52.532;13.336;2023-11-18T10:39:31;7.23;;;6.53;;
16593;SDS011;8410;52.532;13.336;2023-11-18T10:42:03;7.20;;;6.50;;
16593;SDS011;8410;52.532;13.336;2023-11-18T10:44:31;7.87;;;7.03;;
16593;SDS011;8410;52.532;13.336;2023-11-18T10:46:58;7.63;;;6.93;;
16593;SDS011;8410;52.532;13.336;2023-11-18T10:49:26;9.20;;;8.20;;
16593;SDS011;8410;52.532;13.336;2023-11-18T10:51:55;12.00;;;8.77;;
16593;SDS011;8410;52.532;13.336;2023-11-18T10:54:25;9.00;;;8.10;;
16593;SDS011;8410;52.532;13.336;2023-11-18T10:56:53;10.10;;;8.80;;
16593;SDS011;8410;52.532;13.336;2023-11-18T10:59:24;13.67;;;10.10;;
16593;SDS011;8410;52.532;13.336;2023-11-18T11:01:53;14.73;;;10.03;;
16593;SDS011;8410;52.532;13.336;2023-11-18T11:04:24;10.03;;;9.03;;
16593;SDS011;8410;52.532;13.336;2023-11-18T11:06:52;10.23;;;9.00;;
16593;SDS011;8410;52.532;13.336;2023-11-18T11:09:20;11.13;;;9.53;;
16593;SDS011;8410;52.532;13.336;2023-11-18T11:11:52;11.83;;;10.63;;
16593;SDS011;8410;52.532;13.336;2023-11-18T11:14:21;10.83;;;9.60;;
16593;SDS011;8410;52.532;13.336;2023-11-18T11:16:54;11.73;;;10.53;;
16593;SDS011;8410;52.532;13.336;2023-11-18T11:19:25;12.63;;;11.30;;
16593;SDS011;8410;52.532;13.336;2023-11-18T11:22:00;10.83;;;9.70;;
16593;SDS011;8410;52.532;13.336;2023-11-18T11:24:36;12.73;;;10.27;;
16593;SDS011;8410;52.532;13.336;2023-11-18T11:27:14;11.00;;;9.90;;
16593;SDS011;8410;52.532;13.336;2023-11-18T11:29:57;12.43;;;10.87;;
16593;SDS011;8410;52.532;13.336;2023-11-18T11:32:42;14.07;;;10.40;;
16593;SDS011;8410;52.532;13.336;2023-11-18T11:35:19;11.40;;;8.83;;
16593;SDS011;8410;52.532;13.336;2023-11-18T11:37:52;9.60;;;8.70;;
16593;SDS011;8410;52.532;13.336;2023-11-18T11:40:22;11.17;;;9.97;;
16593;SDS011;8410;52.532;13.336;2023-11-18T11:42:51;9.43;;;8.43;;
16593;SDS011;8410;52.532;13.336;2023-11-18T11:45:22;10.50;;;9.03;;
16593;SDS011;8410;52.532;13.336;2023-11-18T11:47:56;9.27;;;8.37;;
16593;SDS011;8410;52.532;13.336;2023-11-18T11:50:54;9.80;;;8.70;;
16593;SDS011;8410;52.532;13.336;2023-11-18T11:53:31;8.20;;;7.40;;
16593;SDS011;8410;52.532;13.336;2023-11-18T11:56:02;8.87;;;7.97;;
16593;SDS011;8410;52.532;13.336;2023-11-18T11:58:33;8.50;;;7.70;;
16593;SDS011;8410;52.532;13.336;2023-11-18T12:01:14;10.17;;;7.70;;
16593;SDS011;8410;52.532;13.336;2023-11-18T12:03:47;8.93;;;7.67;;
16593;SDS011;8410;52.532;13.336;2023-11-18T12:06:18;7.93;;;7.13;;
16593;SDS011;8410;52.532;13.336;2023-11-18T12:08:47;8.17;;;7.37;;
16593;SDS011;8410;52.532;13.336;2023-11-18T12:11:17;9.13;;;6.80;;
16593;SDS011;8410;52.532;13.336;2023-11-18T12:13:59;7.80;;;7.10;;
16593;SDS011;8410;52.532;13.336;2023-11-18T12:16:57;6.87;;;6.23;;
16593;SDS011;8410;52.532;13.336;2023-11-18T12:19:32;12.20;;;10.40;;
16593;SDS011;8410;52.532;13.336;2023-11-18T12:22:11;8.67;;;7.87;;
16593;SDS011;8410;52.532;13.336;2023-11-18T12:24:45;8.30;;;7.03;;
16593;SDS011;8410;52.532;13.336;2023-11-18T12:30:37;10.30;;;7.23;;
16593;SDS011;8410;52.532;13.336;2023-11-18T12:33:09;9.13;;;7.67;;
16593;SDS011;8410;52.532;13.336;2023-11-18T12:39:05;8.27;;;7.40;;
16593;SDS011;8410;52.532;13.336;2023-11-18T12:41:55;8.37;;;7.40;;
16593;SDS011;8410;52.532;13.336;2023-11-18T12:44:35;8.43;;;7.30;;
16593;SDS011;8410;52.532;13.336;2023-11-18T12:47:05;8.77;;;7.50;;
16593;SDS011;8410;52.532;13.336;2023-11-18T12:49:41;7.57;;;6.77;;
16593;SDS011;8410;52.532;13.336;2023-11-18T12:52:09;8.53;;;7.27;;
16593;SDS011;8410;52.532;13.336;2023-11-18T12:54:42;7.83;;;6.60;;
16593;SDS011;8410;52.532;13.336;2023-11-18T12:57:10;7.20;;;6.47;;
16593;SDS011;8410;52.532;13.336;2023-11-18T12:59:41;6.73;;;6.00;;
16593;SDS011;8410;52.532;13.336;2023-11-18T13:02:09;9.60;;;7.23;;
16593;SDS011;8410;52.532;13.336;2023-11-18T13:04:39;7.10;;;6.40;;
16593;SDS011;8410;52.532;13.336;2023-11-18T13:07:07;7.07;;;6.37;;
16593;SDS011;8410;52.532;13.336;2023-11-18T13:09:37;7.67;;;6.87;;
16593;SDS011;8410;52.532;13.336;2023-11-18T13:12:08;6.70;;;5.93;;
16593;SDS011;8410;52.532;13.336;2023-11-18T13:14:36;6.87;;;5.97;;
16593;SDS011;8410;52.532;13.336;2023-11-18T13:17:08;6.57;;;5.97;;
16593;SDS011;8410;52.532;13.336;2023-11-18T13:19:38;6.97;;;6.27;;
16593;SDS011;8410;52.532;13.336;2023-11-18T13:22:06;5.90;;;5.37;;
16593;SDS011;8410;52.532;13.336;2023-11-18T13:24:35;6.90;;;5.17;;
16593;SDS011;8410;52.532;13.336;2023-11-18T13:27:07;4.90;;;4.40;;
16593;SDS011;8410;52.532;13.336;2023-11-18T13:29:36;6.27;;;4.43;;
16593;SDS011;8410;52.532;13.336;2023-11-18T13:32:07;4.40;;;4.00;;
16593;SDS011;8410;52.532;13.336;2023-11-18T13:34:37;4.97;;;3.93;;
16593;SDS011;8410;52.532;13.336;2023-11-18T13:37:08;5.50;;;4.93;;
16593;SDS011;8410;52.532;13.336;2023-11-18T13:39:37;4.90;;;4.40;;
16593;SDS011;8410;52.532;13.336;2023-11-18T13:42:19;5.10;;;4.60;;
16593;SDS011;8410;52.532;13.336;2023-11-18T13:44:48;5.50;;;5.00;;
16593;SDS011;8410;52.532;13.336;2023-11-18T13:47:17;5.53;;;5.03;;
16593;SDS011;8410;52.532;13.336;2023-11-18T13:49:45;7.63;;;6.30;;
16593;SDS011;8410;52.532;13.336;2023-11-18T13:52:17;6.53;;;5.93;;
16593;SDS011;8410;52.532;13.336;2023-11-18T13:54:46;8.23;;;6.07;;
16593;SDS011;8410;52.532;13.336;2023-11-18T13:57:14;6.13;;;5.53;;
16593;SDS011;8410;52.532;13.336;2023-11-18T13:59:44;6.93;;;6.23;;
16593;SDS011;8410;52.532;13.336;2023-11-18T14:02:11;7.70;;;6.93;;
16593;SDS011;8410;52.532;13.336;2023-11-18T14:04:39;9.13;;;7.63;;
16593;SDS011;8410;52.532;13.336;2023-11-18T14:07:09;11.03;;;8.23;;
16593;SDS011;8410;52.532;13.336;2023-11-18T14:09:42;8.87;;;7.57;;
16593;SDS011;8410;52.532;13.336;2023-11-18T14:12:11;9.93;;;8.00;;
16593;SDS011;8410;52.532;13.336;2023-11-18T14:14:40;8.03;;;7.23;;
16593;SDS011;8410;52.532;13.336;2023-11-18T14:17:09;9.43;;;8.07;;
16593;SDS011;8410;52.532;13.336;2023-11-18T14:19:37;12.07;;;8.83;;
16593;SDS011;8410;52.532;13.336;2023-11-18T14:22:04;10.27;;;7.97;;
16593;SDS011;8410;52.532;13.336;2023-11-18T14:24:33;12.93;;;10.07;;
16593;SDS011;8410;52.532;13.336;2023-11-18T14:27:01;11.37;;;9.90;;
16593;SDS011;8410;52.532;13.336;2023-11-18T14:29:30;10.80;;;9.40;;
16593;SDS011;8410;52.532;13.336;2023-11-18T14:31:58;12.53;;;8.43;;
16593;SDS011;8410;52.532;13.336;2023-11-18T14:34:27;12.10;;;8.97;;
16593;SDS011;8410;52.532;13.336;2023-11-18T14:36:55;11.80;;;9.13;;
16593;SDS011;8410;52.532;13.336;2023-11-18T14:39:22;8.97;;;7.37;;
16593;SDS011;8410;52.532;13.336;2023-11-18T14:41:51;11.30;;;8.53;;
16593;SDS011;8410;52.532;13.336;2023-11-18T14:44:19;10.70;;;8.60;;
16593;SDS011;8410;52.532;13.336;2023-11-18T14:46:47;12.20;;;8.73;;
16593;SDS011;8410;52.532;13.336;2023-11-18T14:49:15;10.67;;;9.37;;
16593;SDS011;8410;52.532;13.336;2023-11-18T14:51:44;11.47;;;9.83;;
16593;SDS011;8410;52.532;13.336;2023-11-18T14:54:12;10.07;;;8.10;;
16593;SDS011;8410;52.532;13.336;2023-11-18T14:56:40;15.83;;;12.80;;
16593;SDS011;8410;52.532;13.336;2023-11-18T14:59:07;14.80;;;11.90;;
16593;SDS011;8410;52.532;13.336;2023-11-18T15:01:35;15.07;;;13.43;;
16593;SDS011;8410;52.532;13.336;2023-11-18T15:04:02;10.90;;;9.50;;